createdAt,value
2018-12-05T00:00:54.089Z,3.39
2018-12-05T00:01:54.081Z,3.28
2018-12-05T00:02:54.073Z,3.34
2018-12-05T00:03:54.089Z,3.31
2018-12-05T00:04:54.051Z,3.30
2018-12-05T00:05:54.045Z,3.28
2018-12-05T00:06:54.026Z,3.31
2018-12-05T00:07:54.014Z,3.31
2018-12-05T00:08:54.010Z,3.34
2018-12-05T00:09:54.009Z,3.34
2018-12-05T00:10:53.987Z,3.26
2018-12-05T00:11:53.971Z,3.30
2018-12-05T00:12:53.967Z,3.26
2018-12-05T00:13:53.962Z,3.26
2018-12-05T00:14:53.944Z,3.26
2018-12-05T00:15:53.929Z,3.30
2018-12-05T00:16:53.924Z,3.30
2018-12-05T00:17:53.910Z,3.17
2018-12-05T00:18:53.914Z,3.16
2018-12-05T00:19:53.902Z,3.16
2018-12-05T00:20:53.883Z,3.25
2018-12-05T00:21:53.864Z,3.25
2018-12-05T00:22:53.858Z,3.19
2018-12-05T00:23:53.850Z,3.25
2018-12-05T00:24:53.836Z,3.23
2018-12-05T00:25:53.840Z,3.22
2018-12-05T00:26:53.837Z,3.17
2018-12-05T00:27:53.799Z,3.17
2018-12-05T00:28:53.792Z,3.16
2018-12-05T00:29:53.783Z,3.16
2018-12-05T00:30:53.772Z,3.17
2018-12-05T00:31:53.762Z,3.07
2018-12-05T00:32:53.788Z,3.10
2018-12-05T00:33:53.741Z,3.10
2018-12-05T00:34:53.730Z,3.12
2018-12-05T00:35:53.720Z,3.13
2018-12-05T00:36:53.703Z,3.17
2018-12-05T00:37:53.691Z,3.08
2018-12-05T00:38:53.691Z,3.10
2018-12-05T00:39:53.678Z,3.16
2018-12-05T00:40:53.658Z,3.15
2018-12-05T00:41:53.664Z,3.17
2018-12-05T00:42:53.637Z,3.13
2018-12-05T00:43:53.632Z,3.08
2018-12-05T00:44:53.616Z,3.10
2018-12-05T00:45:53.622Z,2.97
2018-12-05T00:46:53.600Z,2.99
2018-12-05T00:47:53.594Z,3.01
2018-12-05T00:48:53.582Z,3.08
2018-12-05T00:49:53.562Z,2.99
2018-12-05T00:50:53.556Z,2.94
2018-12-05T00:51:53.546Z,2.94
2018-12-05T00:52:53.540Z,3.02
2018-12-05T00:53:53.528Z,3.04
2018-12-05T00:54:53.518Z,2.97
2018-12-05T00:55:53.502Z,3.02
2018-12-05T00:56:53.499Z,2.99
2018-12-05T00:57:53.474Z,2.99
2018-12-05T00:58:53.470Z,2.95
2018-12-05T00:59:53.463Z,2.95
2018-12-05T01:00:53.443Z,2.98
2018-12-05T01:01:53.434Z,2.92
2018-12-05T01:02:53.441Z,2.97
2018-12-05T01:03:53.415Z,2.98
2018-12-05T01:04:53.405Z,2.99
2018-12-05T01:05:53.394Z,2.97
2018-12-05T01:06:53.378Z,2.99
2018-12-05T01:07:53.386Z,2.95
2018-12-05T01:08:53.366Z,2.99
2018-12-05T01:09:53.356Z,3.01
2018-12-05T01:10:53.348Z,2.98
2018-12-05T01:11:53.330Z,2.99
2018-12-05T01:12:53.345Z,3.05
2018-12-05T01:13:53.310Z,2.97
2018-12-05T01:14:53.300Z,3.07
2018-12-05T01:15:53.282Z,3.01
2018-12-05T01:16:53.277Z,2.97
2018-12-05T01:17:53.271Z,2.99
2018-12-05T01:18:53.271Z,2.86
2018-12-05T01:19:53.244Z,2.95
2018-12-05T01:20:53.234Z,2.94
2018-12-05T01:21:53.234Z,2.90
2018-12-05T01:22:53.213Z,2.89
2018-12-05T01:23:53.223Z,2.97
2018-12-05T01:24:53.188Z,2.97
2018-12-05T01:25:53.179Z,2.95
2018-12-05T01:26:53.170Z,2.97
2018-12-05T01:27:53.153Z,2.92
2018-12-05T01:28:53.148Z,2.83
2018-12-05T01:29:53.148Z,2.97
2018-12-05T01:30:53.127Z,2.86
2018-12-05T01:31:53.118Z,2.87
2018-12-05T01:32:53.114Z,2.95
2018-12-05T01:33:53.175Z,2.89
2018-12-05T01:34:53.096Z,2.97
2018-12-05T01:35:53.069Z,2.97
2018-12-05T01:36:53.057Z,2.95
2018-12-05T01:37:53.049Z,2.89
2018-12-05T01:38:53.042Z,2.86
2018-12-05T01:39:53.047Z,2.94
2018-12-05T01:40:53.019Z,2.94
2018-12-05T01:41:53.015Z,2.89
2018-12-05T01:42:52.996Z,2.87
2018-12-05T01:43:52.982Z,2.90
2018-12-05T01:44:52.992Z,2.84
2018-12-05T01:45:52.978Z,2.79
2018-12-05T01:46:52.953Z,2.83
2018-12-05T01:47:52.946Z,2.83
2018-12-05T01:48:52.931Z,2.84
2018-12-05T01:49:52.922Z,2.84
2018-12-05T01:50:52.929Z,2.80
2018-12-05T01:51:52.904Z,2.87
2018-12-05T01:52:52.892Z,2.84
2018-12-05T01:53:52.875Z,2.81
2018-12-05T01:54:52.870Z,2.80
2018-12-05T01:55:52.907Z,2.83
2018-12-05T01:56:52.849Z,2.81
2018-12-05T01:57:52.832Z,2.81
2018-12-05T01:58:52.828Z,2.87
2018-12-05T01:59:52.819Z,2.76
2018-12-05T02:00:52.800Z,2.69
2018-12-05T02:01:52.808Z,2.73
2018-12-05T02:02:52.784Z,2.71
2018-12-05T02:03:52.773Z,2.76
2018-12-05T02:04:52.765Z,2.68
2018-12-05T02:05:52.751Z,2.76
2018-12-05T02:06:52.753Z,2.71
2018-12-05T02:07:52.730Z,2.74
2018-12-05T02:08:52.716Z,2.74
2018-12-05T02:09:52.712Z,2.71
2018-12-05T02:10:52.692Z,2.71
2018-12-05T02:11:52.732Z,2.68
2018-12-05T02:12:52.676Z,2.79
2018-12-05T02:13:52.668Z,2.65
2018-12-05T02:14:52.661Z,2.71
2018-12-05T02:15:52.645Z,2.76
2018-12-05T02:16:52.647Z,2.73
2018-12-05T02:17:52.634Z,2.66
2018-12-05T02:18:52.607Z,2.66
2018-12-05T02:19:52.604Z,2.80
2018-12-05T02:20:52.585Z,2.74
2018-12-05T02:21:52.622Z,2.74
2018-12-05T02:22:52.565Z,2.66
2018-12-05T02:23:52.552Z,2.71
2018-12-05T02:24:52.547Z,2.79
2018-12-05T02:25:52.532Z,2.76
2018-12-05T02:26:52.522Z,2.69
2018-12-05T02:27:52.527Z,2.74
2018-12-05T02:28:52.519Z,2.77
2018-12-05T02:29:52.489Z,2.69
2018-12-05T02:30:52.484Z,2.73
2018-12-05T02:31:52.472Z,2.74
2018-12-05T02:32:52.483Z,2.71
2018-12-05T02:33:52.449Z,2.71
2018-12-05T02:34:52.445Z,2.74
2018-12-05T02:35:52.443Z,2.76
2018-12-05T02:36:52.424Z,2.68
2018-12-05T02:37:52.407Z,2.66
2018-12-05T02:38:52.412Z,2.68
2018-12-05T02:39:52.389Z,2.71
2018-12-05T02:40:52.421Z,2.73
2018-12-05T02:41:52.385Z,2.69
2018-12-05T02:42:52.356Z,2.68
2018-12-05T02:43:52.340Z,2.68
2018-12-05T02:44:52.333Z,2.71
2018-12-05T02:45:52.322Z,2.73
2018-12-05T02:46:52.328Z,2.66
2018-12-05T02:47:52.296Z,2.69
2018-12-05T02:48:52.290Z,2.66
2018-12-05T02:49:52.297Z,2.65
2018-12-05T02:50:52.291Z,2.62
2018-12-05T02:51:52.255Z,2.68
2018-12-05T02:52:52.247Z,2.59
2018-12-05T02:53:52.239Z,2.61
2018-12-05T02:54:52.222Z,2.65
2018-12-05T02:55:52.217Z,2.59
2018-12-05T02:56:52.217Z,2.61
2018-12-05T02:57:52.241Z,2.63
2018-12-05T02:58:52.185Z,2.61
2018-12-05T02:59:52.182Z,2.62
2018-12-05T03:00:52.161Z,2.63
2018-12-05T03:01:52.150Z,2.61
2018-12-05T03:02:52.137Z,2.68
2018-12-05T03:03:52.154Z,2.53
2018-12-05T03:04:52.121Z,2.63
2018-12-05T03:05:52.119Z,2.59
2018-12-05T03:06:52.092Z,2.65
2018-12-05T03:07:52.086Z,2.63
2018-12-05T03:08:52.071Z,2.62
2018-12-05T03:09:52.091Z,2.55
2018-12-05T03:10:52.055Z,2.56
2018-12-05T03:11:52.037Z,2.59
2018-12-05T03:12:52.027Z,2.48
2018-12-05T03:13:52.017Z,2.53
2018-12-05T03:14:52.012Z,2.51
2018-12-05T03:15:52.016Z,2.56
2018-12-05T03:16:52.000Z,2.45
2018-12-05T03:17:51.978Z,2.53
2018-12-05T03:18:51.966Z,2.50
2018-12-05T03:19:51.952Z,2.45
2018-12-05T03:20:51.966Z,2.43
2018-12-05T03:21:51.937Z,2.37
2018-12-05T03:22:51.924Z,2.45
2018-12-05T03:23:51.937Z,2.47
2018-12-05T03:24:51.898Z,2.41
2018-12-05T03:25:51.887Z,2.44
2018-12-05T03:26:51.894Z,2.38
2018-12-05T03:27:51.867Z,2.41
2018-12-05T03:28:51.854Z,2.27
2018-12-05T03:29:51.845Z,2.33
2018-12-05T03:30:51.841Z,2.38
2018-12-05T03:31:51.842Z,2.30
2018-12-05T03:32:51.814Z,2.32
2018-12-05T03:33:51.806Z,2.36
2018-12-05T03:34:51.796Z,2.27
2018-12-05T03:35:51.781Z,2.25
2018-12-05T03:36:51.789Z,2.25
2018-12-05T03:37:51.792Z,2.36
2018-12-05T03:38:51.751Z,2.30
2018-12-05T03:39:51.741Z,2.32
2018-12-05T03:40:51.729Z,2.27
2018-12-05T03:41:51.717Z,2.36
2018-12-05T03:42:51.717Z,2.37
2018-12-05T03:43:51.709Z,2.26
2018-12-05T03:44:51.686Z,2.36
2018-12-05T03:45:51.676Z,2.20
2018-12-05T03:48:07.716Z,2.26
2018-12-05T03:49:07.749Z,2.25
2018-12-05T03:50:07.698Z,2.23
2018-12-05T03:51:07.679Z,2.20
2018-12-05T03:52:07.669Z,2.14
2018-12-05T03:53:07.666Z,2.19
2018-12-05T03:54:07.659Z,2.15
2018-12-05T03:55:07.661Z,2.15
2018-12-05T03:56:07.639Z,2.11
2018-12-05T03:57:07.626Z,2.11
2018-12-05T03:58:07.614Z,2.08
2018-12-05T03:59:07.608Z,2.04
2018-12-05T04:00:07.603Z,2.05
2018-12-05T04:01:07.576Z,2.12
2018-12-05T04:02:07.567Z,2.08
2018-12-05T04:03:07.562Z,2.14
2018-12-05T04:04:07.557Z,2.20
2018-12-05T04:05:07.582Z,2.19
2018-12-05T04:06:07.526Z,2.18
2018-12-05T04:07:07.519Z,2.04
2018-12-05T04:08:07.511Z,2.11
2018-12-05T04:09:07.517Z,2.05
2018-12-05T04:10:07.497Z,2.07
2018-12-05T04:11:07.502Z,2.08
2018-12-05T04:12:07.458Z,2.09
2018-12-05T04:13:07.449Z,2.12
2018-12-05T04:14:07.447Z,2.07
2018-12-05T04:15:07.467Z,2.05
2018-12-05T04:16:07.435Z,2.08
2018-12-05T04:17:07.417Z,2.07
2018-12-05T04:18:07.423Z,2.08
2018-12-05T04:19:07.391Z,2.04
2018-12-05T04:20:07.383Z,2.05
2018-12-05T04:21:07.366Z,2.09
2018-12-05T04:22:07.380Z,2.11
2018-12-05T04:23:07.340Z,2.08
2018-12-05T04:24:07.330Z,2.05
2018-12-05T04:25:07.331Z,2.11
2018-12-05T04:26:07.310Z,2.14
2018-12-05T04:27:07.301Z,2.08
2018-12-05T04:28:07.300Z,2.07
2018-12-05T04:29:07.295Z,2.07
2018-12-05T04:30:07.267Z,2.18
2018-12-05T04:31:07.304Z,2.14
2018-12-05T04:32:07.248Z,2.11
2018-12-05T04:33:07.237Z,2.14
2018-12-05T04:34:07.232Z,2.07
2018-12-05T04:35:07.221Z,2.14
2018-12-05T04:36:07.207Z,2.08
2018-12-05T04:37:07.213Z,2.11
2018-12-05T04:38:07.191Z,2.07
2018-12-05T04:39:07.184Z,2.07
2018-12-05T04:40:07.182Z,2.02
2018-12-05T04:41:07.164Z,1.95
2018-12-05T04:42:07.173Z,2.07
2018-12-05T04:43:07.136Z,1.90
2018-12-05T04:44:07.142Z,1.89
2018-12-05T04:45:07.114Z,1.95
2018-12-05T04:46:07.109Z,1.85
2018-12-05T04:47:07.100Z,1.89
2018-12-05T04:48:07.095Z,1.89
2018-12-05T04:49:07.076Z,1.89
2018-12-05T04:50:07.060Z,1.93
2018-12-05T04:51:07.059Z,1.82
2018-12-05T04:52:07.050Z,1.82
2018-12-05T04:53:07.065Z,1.81
2018-12-05T04:54:07.023Z,1.79
2018-12-05T04:55:07.020Z,1.77
2018-12-05T04:56:07.004Z,1.72
2018-12-05T04:57:06.989Z,1.72
2018-12-05T04:58:06.982Z,1.77
2018-12-05T04:59:06.990Z,1.72
2018-12-05T05:00:06.955Z,1.81
2018-12-05T05:01:06.950Z,1.85
2018-12-05T05:02:06.942Z,1.68
2018-12-05T05:03:06.928Z,1.60
2018-12-05T05:04:06.952Z,1.65
2018-12-05T05:05:06.901Z,1.54
2018-12-05T05:06:06.904Z,1.53
2018-12-05T05:07:07.181Z,1.54
2018-12-05T05:08:06.880Z,1.63
2018-12-05T05:09:06.868Z,1.60
2018-12-05T05:10:06.910Z,1.49
2018-12-05T05:11:06.852Z,1.38
2018-12-05T05:12:06.830Z,1.43
2018-12-05T05:13:06.827Z,1.47
2018-12-05T05:14:06.808Z,1.49
2018-12-05T05:15:06.809Z,1.44
2018-12-05T05:16:06.800Z,1.38
2018-12-05T05:17:06.777Z,1.36
2018-12-05T05:18:06.767Z,1.42
2018-12-05T05:19:06.765Z,1.38
2018-12-05T05:20:06.757Z,1.46
2018-12-05T05:21:06.774Z,1.49
2018-12-05T05:22:06.731Z,1.52
2018-12-05T05:23:06.726Z,1.53
2018-12-05T05:24:06.708Z,1.54
2018-12-05T05:25:06.699Z,1.44
2018-12-05T05:26:06.690Z,1.46
2018-12-05T05:27:06.689Z,1.46
2018-12-05T05:28:06.666Z,1.46
2018-12-05T05:29:06.651Z,1.47
2018-12-05T05:30:06.645Z,1.47
2018-12-05T05:31:06.630Z,1.50
2018-12-05T05:32:06.631Z,1.43
2018-12-05T05:33:06.609Z,1.53
2018-12-05T05:34:06.604Z,1.44
2018-12-05T05:35:06.603Z,1.53
2018-12-05T05:36:06.581Z,1.46
2018-12-05T05:37:06.610Z,1.53
2018-12-05T05:38:06.557Z,1.60
2018-12-05T05:39:06.544Z,1.57
2018-12-05T05:40:06.541Z,1.50
2018-12-05T05:41:06.524Z,1.53
2018-12-05T05:42:06.516Z,1.57
2018-12-05T05:43:06.549Z,1.53
2018-12-05T05:44:06.492Z,1.60
2018-12-05T05:45:06.484Z,1.57
2018-12-05T05:46:06.481Z,1.54
2018-12-05T05:47:06.507Z,1.56
2018-12-05T05:48:06.455Z,1.57
2018-12-05T05:49:06.446Z,1.64
2018-12-05T05:50:06.430Z,1.56
2018-12-05T05:51:06.419Z,1.60
2018-12-05T05:52:06.415Z,1.60
2018-12-05T05:53:06.413Z,1.60
2018-12-05T05:54:06.388Z,1.56
2018-12-05T05:55:06.375Z,1.57
2018-12-05T05:56:06.369Z,1.57
2018-12-05T05:57:06.356Z,1.50
2018-12-05T05:58:06.363Z,1.60
2018-12-05T05:59:06.361Z,1.56
2018-12-05T06:00:06.325Z,1.50
2018-12-05T06:01:06.314Z,1.63
2018-12-05T06:02:06.303Z,1.52
2018-12-05T06:03:06.303Z,1.56
2018-12-05T06:04:06.933Z,1.54
2018-12-05T06:05:06.279Z,1.60
2018-12-05T06:06:06.273Z,1.50
2018-12-05T06:07:06.257Z,1.49
2018-12-05T06:08:06.245Z,1.50
2018-12-05T06:09:06.240Z,1.47
2018-12-05T06:10:06.235Z,1.43
2018-12-05T06:11:06.210Z,1.42
2018-12-05T06:12:06.203Z,1.49
2018-12-05T06:13:06.187Z,1.36
2018-12-05T06:14:06.195Z,1.44
2018-12-05T06:15:06.177Z,1.38
2018-12-05T06:16:06.164Z,1.36
2018-12-05T06:17:06.146Z,1.42
2018-12-05T06:18:06.142Z,1.35
2018-12-05T06:19:06.134Z,1.43
2018-12-05T06:20:06.132Z,1.39
2018-12-05T06:21:06.108Z,1.42
2018-12-05T06:22:06.095Z,1.43
2018-12-05T06:23:06.097Z,1.29
2018-12-05T06:24:06.072Z,1.26
2018-12-05T06:25:06.078Z,1.29
2018-12-05T06:26:06.060Z,1.29
2018-12-05T06:27:06.040Z,1.31
2018-12-05T06:28:06.030Z,1.17
2018-12-05T06:29:06.033Z,1.28
2018-12-05T06:30:06.008Z,1.24
2018-12-05T06:31:06.039Z,1.29
2018-12-05T06:32:05.988Z,1.25
2018-12-05T06:33:05.991Z,1.20
2018-12-05T06:34:05.996Z,1.24
2018-12-05T06:35:05.958Z,1.28
2018-12-05T06:36:05.952Z,1.26
2018-12-05T06:37:05.950Z,1.26
2018-12-05T06:38:05.930Z,1.25
2018-12-05T06:39:05.929Z,1.25
2018-12-05T06:40:05.912Z,1.28
2018-12-05T06:41:05.915Z,1.28
2018-12-05T06:42:05.886Z,1.24
2018-12-05T06:43:05.877Z,1.17
2018-12-05T06:44:05.867Z,1.31
2018-12-05T06:45:05.853Z,1.17
2018-12-05T06:46:05.857Z,1.26
2018-12-05T06:47:05.843Z,1.25
2018-12-05T06:48:05.827Z,1.25
2018-12-05T06:49:05.816Z,1.20
2018-12-05T06:50:05.803Z,1.10
2018-12-05T06:51:05.810Z,1.16
2018-12-05T06:52:05.790Z,1.10
2018-12-05T06:53:05.780Z,1.18
2018-12-05T06:54:05.760Z,1.08
2018-12-05T06:55:05.746Z,1.16
2018-12-05T06:56:05.776Z,1.06
2018-12-05T06:57:05.730Z,1.11
2018-12-05T06:58:05.726Z,1.13
2018-12-05T06:59:05.710Z,1.13
2018-12-05T07:00:05.694Z,1.08
2018-12-05T07:01:05.688Z,1.10
2018-12-05T07:02:05.730Z,1.13
2018-12-05T07:03:05.663Z,1.10
2018-12-05T07:04:05.652Z,1.14
2018-12-05T07:05:05.654Z,1.08
2018-12-05T07:06:05.631Z,1.04
2018-12-05T07:07:05.619Z,1.08
2018-12-05T07:08:05.630Z,1.07
2018-12-05T07:09:05.604Z,1.08
2018-12-05T07:10:05.591Z,1.10
2018-12-05T07:11:05.578Z,1.17
2018-12-05T07:12:05.581Z,1.25
2018-12-05T07:13:05.557Z,1.20
2018-12-05T07:14:05.571Z,1.20
2018-12-05T07:15:05.535Z,1.16
2018-12-05T07:16:05.535Z,1.24
2018-12-05T07:17:05.544Z,1.21
2018-12-05T07:18:05.513Z,1.20
2018-12-05T07:19:05.498Z,1.17
2018-12-05T07:20:05.483Z,1.21
2018-12-05T07:21:05.546Z,1.29
2018-12-05T07:22:05.474Z,1.17
2018-12-05T07:23:05.479Z,1.25
2018-12-05T07:24:05.477Z,1.26
2018-12-05T07:25:05.439Z,1.16
2018-12-05T07:26:05.424Z,1.24
2018-12-05T07:27:05.407Z,1.17
2018-12-05T07:28:05.409Z,1.29
2018-12-05T07:29:05.433Z,1.26
2018-12-05T07:30:05.383Z,1.25
2018-12-05T07:31:05.368Z,1.29
2018-12-05T07:32:05.362Z,1.32
2018-12-05T07:33:05.345Z,1.43
2018-12-05T07:34:05.334Z,1.39
2018-12-05T07:35:05.343Z,1.39
2018-12-05T07:36:05.319Z,1.43
2018-12-05T07:37:05.305Z,1.43
2018-12-05T07:38:05.294Z,1.36
2018-12-05T07:39:05.288Z,1.46
2018-12-05T07:40:05.287Z,1.39
2018-12-05T07:41:05.277Z,1.38
2018-12-05T07:42:05.257Z,1.43
2018-12-05T07:43:05.241Z,1.50
2018-12-05T07:44:05.234Z,1.50
2018-12-05T07:45:05.232Z,1.53
2018-12-05T07:46:05.228Z,1.54
2018-12-05T07:47:05.238Z,1.63
2018-12-05T07:48:05.192Z,1.56
2018-12-05T07:49:05.176Z,1.68
2018-12-05T07:50:05.170Z,1.75
2018-12-05T07:51:05.163Z,1.77
2018-12-05T07:52:05.152Z,1.83
2018-12-05T07:53:05.155Z,1.98
2018-12-05T07:54:05.132Z,2.15
2018-12-05T07:55:05.127Z,2.22
2018-12-05T07:56:05.120Z,2.23
2018-12-05T07:57:05.127Z,2.25
2018-12-05T07:58:05.096Z,2.27
2018-12-05T07:59:05.159Z,2.32
2018-12-05T08:00:05.073Z,2.32
2018-12-05T08:01:05.085Z,2.40
2018-12-05T08:02:05.046Z,2.32
2018-12-05T08:03:05.035Z,2.44
2018-12-05T08:04:05.020Z,2.55
2018-12-05T08:05:05.025Z,2.59
2018-12-05T08:06:05.004Z,2.68
2018-12-05T08:07:05.026Z,2.76
2018-12-05T08:08:04.977Z,2.87
2018-12-05T08:09:04.976Z,3.02
2018-12-05T08:10:04.957Z,2.89
2018-12-05T08:11:04.946Z,2.86
2018-12-05T08:12:04.997Z,2.83
2018-12-05T08:13:04.933Z,2.66
2018-12-05T08:14:06.569Z,2.63
2018-12-05T08:15:04.903Z,2.68
2018-12-05T08:16:04.904Z,2.83
2018-12-05T08:17:04.887Z,2.95
2018-12-05T08:18:04.917Z,2.99
2018-12-05T08:19:04.866Z,3.10
2018-12-05T08:20:04.860Z,3.20
2018-12-05T08:21:04.869Z,3.26
2018-12-05T08:22:04.835Z,3.28
2018-12-05T08:23:04.820Z,3.30
2018-12-05T08:24:04.855Z,3.35
2018-12-05T08:25:04.797Z,3.41
2018-12-05T08:26:04.788Z,3.50
2018-12-05T08:27:04.782Z,3.52
2018-12-05T08:28:04.781Z,3.70
2018-12-05T08:29:04.758Z,3.84
2018-12-05T08:30:04.759Z,3.98
2018-12-05T08:31:04.734Z,4.06
2018-12-05T08:32:05.516Z,4.13
2018-12-05T08:33:04.713Z,4.16
2018-12-05T08:34:04.719Z,4.38
2018-12-05T08:35:04.737Z,4.54
2018-12-05T08:36:04.692Z,4.51
2018-12-05T08:37:04.677Z,4.71
2018-12-05T08:38:04.666Z,4.75
2018-12-05T08:39:04.649Z,5.01
2018-12-05T08:40:04.643Z,4.93
2018-12-05T08:41:04.677Z,5.04
2018-12-05T08:42:04.642Z,5.04
2018-12-05T08:43:04.608Z,5.01
2018-12-05T08:44:04.603Z,4.99
2018-12-05T08:45:04.599Z,4.94
2018-12-05T08:46:04.585Z,4.99
2018-12-05T08:47:04.583Z,5.06
2018-12-05T08:48:04.565Z,5.20
2018-12-05T08:49:04.569Z,5.32
2018-12-05T08:50:04.532Z,5.45
2018-12-05T08:51:04.528Z,5.40
2018-12-05T08:52:04.526Z,5.38
2018-12-05T08:53:04.515Z,5.45
2018-12-05T08:54:04.502Z,5.33
2018-12-05T08:55:04.479Z,5.33
2018-12-05T08:56:04.468Z,5.45
2018-12-05T08:57:04.522Z,5.55
2018-12-05T08:58:04.450Z,5.67
2018-12-05T08:59:04.444Z,5.47
2018-12-05T09:00:04.428Z,5.23
2018-12-05T09:01:04.419Z,5.15
2018-12-05T09:02:04.416Z,5.33
2018-12-05T09:03:04.412Z,5.41
2018-12-05T09:04:04.436Z,5.29
2018-12-05T09:05:04.373Z,5.33
2018-12-05T09:06:04.364Z,5.26
2018-12-05T09:07:04.351Z,5.23
2018-12-05T09:08:04.344Z,5.32
2018-12-05T09:09:04.335Z,5.38
2018-12-05T09:10:04.343Z,5.32
2018-12-05T09:11:04.309Z,5.26
2018-12-05T09:12:04.297Z,5.27
2018-12-05T09:13:04.333Z,5.22
2018-12-05T09:14:04.291Z,5.14
2018-12-05T09:15:04.277Z,5.14
2018-12-05T09:16:04.278Z,5.32
2018-12-05T09:17:04.249Z,5.23
2018-12-05T09:18:04.233Z,5.23
2018-12-05T09:19:04.235Z,5.26
2018-12-05T09:20:04.238Z,5.24
2018-12-05T09:21:04.208Z,5.22
2018-12-05T09:22:04.196Z,5.12
2018-12-05T09:23:04.195Z,5.12
2018-12-05T09:24:04.171Z,5.20
2018-12-05T09:25:04.161Z,5.26
2018-12-05T09:26:04.154Z,5.33
2018-12-05T09:27:04.158Z,5.52
2018-12-05T09:28:04.155Z,5.67
2018-12-05T09:29:04.115Z,5.67
2018-12-05T09:30:04.105Z,5.78
2018-12-05T09:31:04.095Z,5.96
2018-12-05T09:32:04.107Z,5.95
2018-12-05T09:33:04.087Z,5.78
2018-12-05T09:34:04.063Z,5.85
2018-12-05T09:35:04.052Z,5.85
2018-12-05T09:36:04.106Z,5.95
2018-12-05T09:37:04.077Z,5.90
2018-12-05T09:38:04.021Z,5.96
2018-12-05T09:39:04.021Z,6.17
2018-12-05T09:40:03.998Z,6.42
2018-12-05T09:41:03.987Z,6.53
2018-12-05T09:42:03.983Z,6.61
2018-12-05T09:43:04.482Z,6.79
2018-12-05T09:44:03.961Z,6.73
2018-12-05T09:45:03.953Z,6.71
2018-12-05T09:46:03.949Z,6.83
2018-12-05T09:47:03.924Z,6.93
2018-12-05T09:48:03.913Z,7.16
2018-12-05T09:49:03.918Z,7.04
2018-12-05T09:50:03.901Z,6.86
2018-12-05T09:51:03.890Z,6.72
2018-12-05T09:52:03.909Z,6.50
2018-12-05T09:53:03.863Z,6.48
2018-12-05T09:54:03.857Z,6.50
2018-12-05T09:55:03.846Z,6.55
2018-12-05T09:56:03.833Z,6.57
2018-12-05T09:57:03.827Z,6.42
2018-12-05T09:58:03.910Z,6.46
2018-12-05T09:59:03.798Z,6.58
2018-12-05T10:00:03.786Z,6.75
2018-12-05T10:01:03.786Z,6.96
2018-12-05T10:02:03.779Z,7.16
2018-12-05T10:03:03.755Z,7.34
2018-12-05T10:04:03.757Z,7.24
2018-12-05T10:05:03.738Z,7.05
2018-12-05T10:06:03.727Z,7.14
2018-12-05T10:07:03.730Z,7.27
2018-12-05T10:08:03.701Z,7.30
2018-12-05T10:09:03.830Z,7.37
2018-12-05T10:10:03.693Z,7.50
2018-12-05T10:11:03.673Z,7.47
2018-12-05T10:12:03.662Z,7.11
2018-12-05T10:13:03.651Z,7.05
2018-12-05T10:14:03.641Z,7.07
2018-12-05T10:15:03.641Z,6.87
2018-12-05T10:16:03.615Z,6.73
2018-12-05T10:17:03.611Z,6.65
2018-12-05T10:18:03.599Z,6.64
2018-12-05T10:19:03.592Z,6.76
2018-12-05T10:20:03.618Z,6.69
2018-12-05T10:21:03.564Z,6.73
2018-12-05T10:22:03.553Z,6.76
2018-12-05T10:23:03.542Z,6.87
2018-12-05T10:24:03.539Z,6.96
2018-12-05T10:25:03.519Z,7.01
2018-12-05T10:26:03.529Z,7.12
2018-12-05T10:27:03.498Z,7.23
2018-12-05T10:28:03.487Z,7.23
2018-12-05T10:29:03.483Z,7.27
2018-12-05T10:30:03.479Z,7.27
2018-12-05T10:31:03.504Z,7.33
2018-12-05T10:32:05.039Z,7.32
2018-12-05T10:33:03.444Z,7.27
2018-12-05T10:34:03.427Z,7.18
2018-12-05T10:35:03.412Z,7.05
2018-12-05T10:36:03.448Z,6.91
2018-12-05T10:37:03.433Z,6.93
2018-12-05T10:38:03.386Z,6.87
2018-12-05T10:39:03.372Z,7.05
2018-12-05T10:40:03.360Z,7.12
2018-12-05T10:41:03.410Z,6.93
2018-12-05T10:42:03.344Z,6.79
2018-12-05T10:43:03.341Z,6.83
2018-12-05T10:44:03.324Z,6.81
2018-12-05T10:45:03.308Z,6.78
2018-12-05T10:46:03.296Z,6.76
2018-12-05T10:47:03.295Z,6.73
2018-12-05T10:48:03.294Z,6.87
2018-12-05T10:49:03.272Z,6.96
2018-12-05T10:50:03.259Z,7.04
2018-12-05T10:51:03.266Z,7.19
2018-12-05T10:52:03.235Z,7.11
2018-12-05T10:53:03.238Z,7.11
2018-12-05T10:54:03.253Z,6.96
2018-12-05T10:55:03.201Z,7.04
2018-12-05T10:56:03.199Z,7.09
2018-12-05T10:57:03.185Z,7.12
2018-12-05T10:58:03.175Z,7.08
2018-12-05T10:59:03.161Z,7.04
2018-12-05T11:00:03.165Z,6.94
2018-12-05T11:01:03.139Z,6.96
2018-12-05T11:02:03.126Z,6.99
2018-12-05T11:03:03.122Z,6.99
2018-12-05T11:04:03.106Z,7.05
2018-12-05T11:05:03.116Z,7.15
2018-12-05T11:06:03.084Z,7.44
2018-12-05T11:07:03.127Z,7.47
2018-12-05T11:08:03.064Z,7.55
2018-12-05T11:09:03.084Z,7.62
2018-12-05T11:10:03.047Z,7.62
2018-12-05T11:11:03.038Z,7.71
2018-12-05T11:12:03.025Z,7.81
2018-12-05T11:13:03.022Z,8.00
2018-12-05T11:14:03.000Z,8.18
2018-12-05T11:15:03.041Z,8.24
2018-12-05T11:16:02.996Z,8.37
2018-12-05T11:17:02.980Z,8.34
2018-12-05T11:18:02.959Z,8.34
2018-12-05T11:19:02.949Z,8.28
2018-12-05T11:20:02.942Z,8.34
2018-12-05T11:21:02.947Z,8.47
2018-12-05T11:22:02.940Z,8.49
2018-12-05T11:23:02.905Z,8.37
2018-12-05T11:24:02.897Z,7.96
2018-12-05T11:25:02.915Z,7.84
2018-12-05T11:26:02.880Z,7.51
2018-12-05T11:27:02.866Z,7.26
2018-12-05T11:28:02.854Z,7.05
2018-12-05T11:29:02.844Z,7.07
2018-12-05T11:30:02.828Z,7.07
2018-12-05T11:31:02.836Z,6.94
2018-12-05T11:32:02.816Z,7.04
2018-12-05T11:33:02.807Z,6.91
2018-12-05T11:34:02.810Z,7.09
2018-12-05T11:35:02.786Z,7.00
2018-12-05T11:36:02.770Z,7.01
2018-12-05T11:37:02.767Z,6.83
2018-12-05T11:38:02.806Z,6.89
2018-12-05T11:39:02.741Z,6.78
2018-12-05T11:40:02.732Z,6.94
2018-12-05T11:41:02.716Z,6.91
2018-12-05T11:42:02.702Z,6.96
2018-12-05T11:43:02.701Z,7.11
2018-12-05T11:44:02.729Z,7.18
2018-12-05T11:45:02.682Z,7.29
2018-12-05T11:46:02.665Z,7.50
2018-12-05T11:47:02.648Z,7.60
2018-12-05T11:48:02.637Z,7.50
2018-12-05T11:49:02.631Z,7.71
2018-12-05T11:50:02.634Z,7.71
2018-12-05T11:51:02.613Z,7.88
2018-12-05T11:52:02.597Z,7.69
2018-12-05T11:53:02.610Z,7.71
2018-12-05T11:54:02.584Z,7.74
2018-12-05T11:55:02.565Z,7.77
2018-12-05T11:56:02.556Z,7.89
2018-12-05T11:57:02.551Z,8.21
2018-12-05T11:58:02.537Z,8.71
2018-12-05T11:59:02.543Z,9.30
2018-12-05T12:00:02.518Z,9.91
2018-12-05T12:01:02.508Z,10.46
2018-12-05T12:02:02.503Z,10.88
2018-12-05T12:03:02.489Z,11.05
2018-12-05T12:04:02.494Z,11.11
2018-12-05T12:05:02.481Z,11.38
2018-12-05T12:06:02.463Z,11.74
2018-12-05T12:07:02.442Z,12.13
2018-12-05T12:08:02.423Z,12.52
2018-12-05T12:09:02.425Z,12.87
2018-12-05T12:10:02.418Z,13.13
2018-12-05T12:11:02.392Z,13.47
2018-12-05T12:12:02.386Z,13.43
2018-12-05T12:13:02.375Z,13.31
2018-12-05T12:14:02.376Z,13.36
2018-12-05T12:15:02.382Z,13.28
2018-12-05T12:16:02.338Z,13.19
2018-12-05T12:17:02.333Z,13.19
2018-12-05T12:18:02.322Z,13.24
2018-12-05T12:19:02.312Z,13.46
2018-12-05T12:20:02.307Z,13.39
2018-12-05T12:21:02.303Z,13.19
2018-12-05T12:22:02.273Z,13.21
2018-12-05T12:23:02.269Z,13.25
2018-12-05T12:24:02.256Z,13.07
2018-12-05T12:25:02.255Z,12.94
2018-12-05T12:26:02.243Z,13.04
2018-12-05T12:27:02.267Z,12.96
2018-12-05T12:28:02.209Z,12.99
2018-12-05T12:29:02.204Z,12.66
2018-12-05T12:30:02.191Z,12.58
2018-12-05T12:31:02.195Z,12.29
2018-12-05T12:32:02.185Z,11.96
2018-12-05T12:33:02.911Z,11.57
2018-12-05T12:34:02.144Z,11.27
2018-12-05T12:35:02.137Z,11.02
2018-12-05T12:36:02.130Z,11.03
2018-12-05T12:37:02.130Z,11.03
2018-12-05T12:38:02.105Z,11.26
2018-12-05T12:39:02.098Z,11.42
2018-12-05T12:40:02.089Z,11.53
2018-12-05T12:41:02.072Z,11.62
2018-12-05T12:42:02.115Z,11.53
2018-12-05T12:43:02.050Z,11.21
2018-12-05T12:44:02.053Z,10.66
2018-12-05T12:45:02.034Z,10.29
2018-12-05T12:46:02.019Z,10.04
2018-12-05T12:47:02.010Z,9.71
2018-12-05T12:48:02.026Z,9.58
2018-12-05T12:49:01.994Z,9.37
2018-12-05T12:50:01.993Z,9.15
2018-12-05T12:51:01.967Z,9.10
2018-12-05T12:52:01.952Z,8.94
2018-12-05T12:53:01.948Z,8.70
2018-12-05T12:54:01.943Z,8.65
2018-12-05T12:55:01.925Z,8.43
2018-12-05T12:56:01.921Z,8.21
2018-12-05T12:57:01.899Z,8.28
2018-12-05T12:58:09.490Z,8.18
2018-12-05T12:59:01.934Z,8.07
2018-12-05T13:00:09.518Z,7.96
2018-12-05T13:01:10.042Z,7.79
2018-12-05T13:02:01.849Z,7.70
2018-12-05T13:03:01.838Z,7.76
2018-12-05T13:04:09.081Z,7.45
2018-12-05T13:06:18.574Z,7.76
2018-12-05T13:08:27.350Z,7.96
2018-12-05T13:09:35.423Z,8.04
2018-12-05T13:10:35.100Z,8.06
2018-12-05T13:11:35.108Z,8.20
2018-12-05T13:12:35.374Z,8.10
2018-12-05T13:13:34.361Z,8.14
2018-12-05T13:14:27.279Z,8.18
2018-12-05T13:15:34.309Z,8.17
2018-12-05T13:16:34.296Z,8.18
2018-12-05T13:17:34.320Z,8.27
2018-12-05T13:18:34.279Z,8.29
2018-12-05T13:19:34.257Z,8.27
2018-12-05T13:20:35.307Z,8.29